createdAt,value
2022-08-17T00:00:04.290Z,4.40
2022-08-17T00:02:31.077Z,5.07
2022-08-17T00:05:02.850Z,4.57
2022-08-17T00:07:29.595Z,4.50
2022-08-17T00:09:57.529Z,4.15
2022-08-17T00:12:43.565Z,4.43
2022-08-17T00:15:12.764Z,4.78
2022-08-17T00:17:42.416Z,4.75
2022-08-17T00:20:10.852Z,4.03
2022-08-17T00:22:37.973Z,4.43
2022-08-17T00:25:08.465Z,4.80
2022-08-17T00:27:36.906Z,4.72
2022-08-17T00:30:06.945Z,4.68
2022-08-17T00:33:14.307Z,4.90
2022-08-17T00:35:34.322Z,4.15
2022-08-17T00:38:01.167Z,5.15
2022-08-17T00:40:40.660Z,4.85
2022-08-17T00:43:40.701Z,5.35
2022-08-17T00:46:11.537Z,4.40
2022-08-17T00:48:39.391Z,4.35
2022-08-17T00:51:09.277Z,4.78
2022-08-17T00:53:41.861Z,5.10
2022-08-17T00:56:17.471Z,4.85
2022-08-17T00:58:44.783Z,4.10
2022-08-17T01:01:21.733Z,4.25
2022-08-17T01:03:51.084Z,4.63
2022-08-17T01:06:18.338Z,4.88
2022-08-17T01:08:45.216Z,4.93
2022-08-17T01:11:12.116Z,4.65
2022-08-17T01:13:42.051Z,4.65
2022-08-17T01:16:28.354Z,4.88
2022-08-17T01:19:17.230Z,5.32
2022-08-17T01:21:49.927Z,5.00
2022-08-17T01:24:16.980Z,4.60
2022-08-17T01:26:45.312Z,4.70
2022-08-17T01:29:13.066Z,5.10
2022-08-17T01:31:54.816Z,4.65
2022-08-17T01:34:22.054Z,4.88
2022-08-17T01:36:50.093Z,4.18
2022-08-17T01:39:41.180Z,5.05
2022-08-17T01:42:29.606Z,4.03
2022-08-17T01:45:01.884Z,4.13
2022-08-17T01:47:28.644Z,4.20
2022-08-17T01:49:57.919Z,5.05
2022-08-17T01:52:24.693Z,4.60
2022-08-17T01:54:52.446Z,4.78
2022-08-17T01:57:19.262Z,4.65
2022-08-17T01:59:46.057Z,4.70
2022-08-17T02:02:12.808Z,4.57
2022-08-17T02:04:57.993Z,4.40
2022-08-17T02:07:27.028Z,4.82
2022-08-17T02:09:54.337Z,4.35
2022-08-17T02:12:39.444Z,4.72
2022-08-17T02:15:08.932Z,4.85
2022-08-17T02:17:36.001Z,4.78
2022-08-17T02:20:03.350Z,5.15
2022-08-17T02:22:31.019Z,5.25
2022-08-17T02:25:01.926Z,4.68
2022-08-17T02:27:29.412Z,4.93
2022-08-17T02:29:56.172Z,4.82
2022-08-17T02:32:28.020Z,5.28
2022-08-17T02:34:59.959Z,6.18
2022-08-17T02:37:28.237Z,6.22
2022-08-17T02:39:58.687Z,5.07
2022-08-17T02:42:38.230Z,4.93
2022-08-17T02:45:11.045Z,5.03
2022-08-17T02:47:38.584Z,4.93
2022-08-17T02:50:06.771Z,5.53
2022-08-17T02:52:42.864Z,4.65
2022-08-17T02:55:23.385Z,5.05
2022-08-17T02:57:51.460Z,5.20
2022-08-17T03:00:28.944Z,5.57
2022-08-17T03:02:57.300Z,5.38
2022-08-17T03:05:27.093Z,5.20
2022-08-17T03:07:53.882Z,4.55
2022-08-17T03:10:21.685Z,5.35
2022-08-17T03:12:49.774Z,5.03
2022-08-17T03:15:28.217Z,5.30
2022-08-17T03:17:56.678Z,4.90
2022-08-17T03:20:25.581Z,5.20
2022-08-17T03:22:55.179Z,5.55
2022-08-17T03:25:32.027Z,6.18
2022-08-17T03:28:01.532Z,5.50
2022-08-17T03:30:29.131Z,5.63
2022-08-17T03:32:59.959Z,5.63
2022-08-17T03:35:29.839Z,6.05
2022-08-17T03:38:00.733Z,6.13
2022-08-17T03:40:55.403Z,5.97
2022-08-17T03:43:17.649Z,5.45
2022-08-17T03:46:02.958Z,5.95
2022-08-17T03:48:49.526Z,5.55
2022-08-17T03:51:42.555Z,6.18
2022-08-17T03:54:28.571Z,5.55
2022-08-17T03:57:07.307Z,5.47
2022-08-17T03:59:35.502Z,5.75
2022-08-17T04:02:11.400Z,5.93
2022-08-17T04:04:39.201Z,5.95
2022-08-17T04:07:07.296Z,6.15
2022-08-17T04:09:34.733Z,5.60
2022-08-17T04:12:04.784Z,5.55
2022-08-17T04:14:37.875Z,6.03
2022-08-17T04:17:20.380Z,5.45
2022-08-17T04:19:47.388Z,5.97
2022-08-17T04:22:30.753Z,5.97
2022-08-17T04:25:13.233Z,6.13
2022-08-17T04:27:40.020Z,6.40
2022-08-17T04:30:07.460Z,5.85
2022-08-17T04:33:06.043Z,7.10
2022-08-17T04:35:54.044Z,6.57
2022-08-17T04:38:24.271Z,6.53
2022-08-17T04:41:10.329Z,5.85
2022-08-17T04:43:39.233Z,5.80
2022-08-17T04:46:09.105Z,6.28
2022-08-17T04:48:47.480Z,6.10
2022-08-17T04:51:15.825Z,6.45
2022-08-17T04:53:45.409Z,5.78
2022-08-17T04:56:20.815Z,6.97
2022-08-17T04:58:50.368Z,6.68
2022-08-17T05:01:24.146Z,6.80
2022-08-17T05:03:53.799Z,6.88
2022-08-17T05:06:21.259Z,7.95
2022-08-17T05:08:48.442Z,6.53
2022-08-17T05:11:15.737Z,6.22
2022-08-17T05:13:42.680Z,5.70
2022-08-17T05:16:09.712Z,6.40
2022-08-17T05:18:38.881Z,5.88
2022-08-17T05:21:07.087Z,5.57
2022-08-17T05:23:42.958Z,5.68
2022-08-17T05:26:24.791Z,5.53
2022-08-17T05:28:55.434Z,6.07
2022-08-17T05:31:24.397Z,6.20
2022-08-17T05:33:51.474Z,6.85
2022-08-17T05:36:37.946Z,6.30
2022-08-17T05:39:05.338Z,6.03
2022-08-17T05:41:32.096Z,5.40
2022-08-17T05:43:58.877Z,5.68
2022-08-17T05:46:30.279Z,6.22
2022-08-17T05:49:02.405Z,5.63
2022-08-17T05:51:44.269Z,6.30
2022-08-17T05:54:30.015Z,6.72
2022-08-17T05:57:20.876Z,6.78
2022-08-17T05:59:59.624Z,6.13
2022-08-17T06:02:48.809Z,7.35
2022-08-17T06:05:28.091Z,6.68
2022-08-17T06:08:02.514Z,6.50
2022-08-17T06:10:41.281Z,6.57
2022-08-17T06:13:17.879Z,5.03
2022-08-17T06:16:04.332Z,5.53
2022-08-17T06:19:00.956Z,5.65
2022-08-17T06:21:34.905Z,5.75
2022-08-17T06:24:24.707Z,5.80
2022-08-17T06:26:53.770Z,5.82
2022-08-17T06:29:27.046Z,5.55
2022-08-17T06:31:53.827Z,6.25
2022-08-17T06:34:21.699Z,6.20
2022-08-17T06:37:09.148Z,6.00
2022-08-17T06:40:17.677Z,5.55
2022-08-17T06:43:05.903Z,5.30
2022-08-17T06:45:49.045Z,5.90
2022-08-17T06:48:28.659Z,5.45
2022-08-17T06:51:00.226Z,7.10
2022-08-17T06:53:42.951Z,6.05
2022-08-17T06:56:21.920Z,6.22
2022-08-17T06:58:49.543Z,7.07
2022-08-17T07:01:25.082Z,7.53
2022-08-17T07:04:17.225Z,6.25
2022-08-17T07:06:59.089Z,5.45
2022-08-17T07:09:35.822Z,5.80
2022-08-17T07:12:11.201Z,6.15
2022-08-17T07:14:37.934Z,5.70
2022-08-17T07:17:09.413Z,6.32
2022-08-17T07:19:41.089Z,5.63
2022-08-17T07:22:54.463Z,5.85
2022-08-17T07:25:20.817Z,5.70
2022-08-17T07:27:54.544Z,5.88
2022-08-17T07:30:26.148Z,5.85
2022-08-17T07:32:59.448Z,5.45
2022-08-17T07:35:37.547Z,4.95
2022-08-17T07:38:26.910Z,5.20
2022-08-17T07:41:06.211Z,5.15
2022-08-17T07:43:41.758Z,4.28
2022-08-17T07:46:33.974Z,4.75
2022-08-17T07:49:03.544Z,4.82
2022-08-17T07:51:36.147Z,4.60
2022-08-17T07:54:23.247Z,4.70
2022-08-17T07:57:27.964Z,5.82
2022-08-17T08:00:03.133Z,5.30
2022-08-17T08:02:40.552Z,5.60
2022-08-17T08:05:49.456Z,5.05
2022-08-17T08:08:28.111Z,4.60
2022-08-17T08:11:09.164Z,4.47
2022-08-17T08:13:43.885Z,4.15
2022-08-17T08:16:16.705Z,5.05
2022-08-17T08:18:55.813Z,4.78
2022-08-17T08:21:43.672Z,4.65
2022-08-17T08:24:30.735Z,4.43
2022-08-17T08:27:28.050Z,4.82
2022-08-17T08:32:48.608Z,3.60
2022-08-17T08:35:32.201Z,3.35
2022-08-17T08:38:08.062Z,5.10
2022-08-17T08:43:19.804Z,3.20
2022-08-17T08:45:56.651Z,3.38
2022-08-17T08:48:53.639Z,3.50
2022-08-17T08:51:23.948Z,4.10
2022-08-17T08:54:12.406Z,3.83
2022-08-17T08:57:22.383Z,3.67
2022-08-17T08:59:59.756Z,5.85
2022-08-17T09:02:56.960Z,3.10
2022-08-17T09:05:23.706Z,3.60
2022-08-17T09:08:08.821Z,2.72
2022-08-17T09:10:58.451Z,3.55
2022-08-17T09:13:25.206Z,4.38
2022-08-17T09:15:59.978Z,3.70
2022-08-17T09:19:00.907Z,3.13
2022-08-17T09:22:00.562Z,3.13
2022-08-17T09:25:03.283Z,2.85
2022-08-17T09:28:00.586Z,2.58
2022-08-17T09:30:36.285Z,2.25
2022-08-17T09:33:08.513Z,2.40
2022-08-17T09:35:45.310Z,2.38
2022-08-17T09:38:19.333Z,3.00
2022-08-17T09:40:59.066Z,2.10
2022-08-17T09:43:46.905Z,2.08
2022-08-17T09:46:25.504Z,2.10
2022-08-17T09:48:56.446Z,2.45
2022-08-17T09:51:30.498Z,2.10
2022-08-17T09:54:14.706Z,2.80
2022-08-17T09:57:31.817Z,3.40
2022-08-17T10:00:13.603Z,2.60
2022-08-17T10:02:53.474Z,2.17
2022-08-17T10:05:43.197Z,2.35
2022-08-17T10:08:35.112Z,2.47
2022-08-17T10:11:33.770Z,1.92
2022-08-17T10:14:36.499Z,2.45
2022-08-17T10:17:07.641Z,2.70
2022-08-17T10:19:40.337Z,3.78
2022-08-17T10:22:42.880Z,2.40
2022-08-17T10:25:53.669Z,2.33
2022-08-17T10:28:28.791Z,2.97
2022-08-17T10:31:23.295Z,3.10
2022-08-17T10:34:00.624Z,3.63
2022-08-17T10:36:54.710Z,3.58
2022-08-17T10:39:51.947Z,3.75
2022-08-17T10:42:37.825Z,2.85
2022-08-17T10:45:18.113Z,3.20
2022-08-17T10:48:07.267Z,3.30
2022-08-17T10:50:55.740Z,2.45
2022-08-17T10:53:31.715Z,2.80
2022-08-17T10:56:13.811Z,3.35
2022-08-17T10:58:49.730Z,3.17
2022-08-17T11:01:17.585Z,2.67
2022-08-17T11:03:56.725Z,3.22
2022-08-17T11:06:38.515Z,2.67
2022-08-17T11:09:34.962Z,2.83
2022-08-17T11:15:03.019Z,2.60
2022-08-17T11:17:38.918Z,2.33
2022-08-17T11:20:32.377Z,4.05
2022-08-17T11:23:24.630Z,2.97
2022-08-17T11:25:55.369Z,2.42
2022-08-17T11:28:34.343Z,2.30
2022-08-17T11:31:40.044Z,4.13
2022-08-17T11:34:06.811Z,2.78
2022-08-17T11:36:45.652Z,2.33
2022-08-17T11:39:30.495Z,2.88
2022-08-17T11:42:29.749Z,2.42
2022-08-17T11:45:03.133Z,2.90
2022-08-17T11:51:33.473Z,3.05
2022-08-17T11:54:31.529Z,2.63
2022-08-17T11:56:54.883Z,3.33
2022-08-17T11:59:33.456Z,2.22
2022-08-17T12:02:03.146Z,2.42
2022-08-17T12:04:32.537Z,2.55
2022-08-17T12:07:08.605Z,2.53
2022-08-17T12:09:41.574Z,2.90
2022-08-17T12:12:16.792Z,2.72
2022-08-17T12:17:42.713Z,2.30
2022-08-17T12:20:34.684Z,2.80
2022-08-17T12:23:23.006Z,2.30
2022-08-17T12:25:56.768Z,2.72
2022-08-17T12:28:33.461Z,2.45
2022-08-17T12:31:11.726Z,2.90
2022-08-17T12:33:43.756Z,2.72
2022-08-17T12:36:17.586Z,2.53
2022-08-17T12:38:59.469Z,3.00
2022-08-17T12:41:46.891Z,6.10
2022-08-17T12:44:21.846Z,3.65
2022-08-17T12:46:54.697Z,5.77
2022-08-17T12:49:22.933Z,5.93
2022-08-17T12:51:51.573Z,2.58
2022-08-17T12:54:31.565Z,4.72
2022-08-17T12:57:05.427Z,11.13
2022-08-17T12:59:33.200Z,6.38
2022-08-17T13:02:01.200Z,5.28
2022-08-17T13:04:29.825Z,4.05
2022-08-17T13:06:59.721Z,3.92
2022-08-17T13:09:35.249Z,7.03
2022-08-17T13:12:07.774Z,12.57
2022-08-17T13:14:35.263Z,4.90
2022-08-17T13:17:08.532Z,3.97
2022-08-17T13:19:49.428Z,7.60
2022-08-17T13:22:18.274Z,6.43
2022-08-17T13:24:55.658Z,5.07
2022-08-17T13:27:25.584Z,5.50
2022-08-17T13:30:02.288Z,5.57
2022-08-17T13:32:48.590Z,4.85
2022-08-17T13:35:39.038Z,4.28
2022-08-17T13:38:10.474Z,7.13
2022-08-17T13:40:43.333Z,6.10
2022-08-17T13:43:11.640Z,6.93
2022-08-17T13:45:50.752Z,5.78
2022-08-17T13:48:29.584Z,10.57
2022-08-17T13:50:59.561Z,8.07
2022-08-17T13:53:35.961Z,5.10
2022-08-17T13:56:37.950Z,3.70
2022-08-17T13:59:12.972Z,3.00
2022-08-17T14:01:53.860Z,7.47
2022-08-17T14:04:27.730Z,4.38
2022-08-17T14:07:10.455Z,5.10
2022-08-17T14:09:57.663Z,6.35
2022-08-17T14:12:27.614Z,5.63
2022-08-17T14:14:56.257Z,3.65
2022-08-17T14:17:24.106Z,3.75
2022-08-17T14:19:51.667Z,3.40
2022-08-17T14:22:24.568Z,3.63
2022-08-17T14:24:51.752Z,3.08
2022-08-17T14:27:20.387Z,3.22
2022-08-17T14:29:47.912Z,3.28
2022-08-17T14:32:19.888Z,3.33
2022-08-17T14:34:47.318Z,3.42
2022-08-17T14:37:14.083Z,3.17
2022-08-17T14:39:40.903Z,2.85
2022-08-17T14:42:08.458Z,3.50
2022-08-17T14:44:36.213Z,3.17
2022-08-17T14:47:04.305Z,2.88
2022-08-17T14:49:31.582Z,2.83
2022-08-17T14:52:01.831Z,3.25
2022-08-17T14:54:34.063Z,2.85
2022-08-17T14:57:23.329Z,3.00
2022-08-17T14:59:53.234Z,2.97
2022-08-17T15:02:29.758Z,2.50
2022-08-17T15:05:02.251Z,2.75
2022-08-17T15:07:30.958Z,2.88
2022-08-17T15:10:00.886Z,2.92
2022-08-17T15:12:32.682Z,2.78
2022-08-17T15:15:01.362Z,2.67
2022-08-17T15:17:43.698Z,2.65
2022-08-17T15:20:17.978Z,2.63
2022-08-17T15:22:46.425Z,2.33
2022-08-17T15:25:13.826Z,3.67
2022-08-17T15:27:40.779Z,2.90
2022-08-17T15:30:09.848Z,2.40
2022-08-17T15:32:39.654Z,2.42
2022-08-17T15:35:09.038Z,2.90
2022-08-17T15:37:37.390Z,2.45
2022-08-17T15:40:05.857Z,2.95
2022-08-17T15:42:34.021Z,2.80
2022-08-17T15:45:09.709Z,2.72
2022-08-17T15:50:06.431Z,2.42
2022-08-17T15:52:37.985Z,2.97
2022-08-17T15:55:06.322Z,2.53
2022-08-17T15:57:34.664Z,3.25
2022-08-17T16:00:01.895Z,2.38
2022-08-17T16:03:44.837Z,2.47
2022-08-17T16:05:24.767Z,2.53
2022-08-17T16:07:52.619Z,2.70
2022-08-17T16:10:20.930Z,2.72
2022-08-17T16:12:49.444Z,2.60
2022-08-17T16:15:17.752Z,2.88
2022-08-17T16:17:44.482Z,2.70
2022-08-17T16:20:20.161Z,2.83
2022-08-17T16:22:49.889Z,2.70
2022-08-17T16:25:52.420Z,3.05
2022-08-17T16:28:15.929Z,3.10
2022-08-17T16:30:42.736Z,2.88
2022-08-17T16:33:11.504Z,3.00
2022-08-17T16:35:38.317Z,3.22
2022-08-17T16:38:05.235Z,3.20
2022-08-17T16:40:35.966Z,3.15
2022-08-17T16:43:04.155Z,3.28
2022-08-17T16:45:36.824Z,3.25
2022-08-17T16:48:04.376Z,4.05
2022-08-17T16:50:32.250Z,3.90
2022-08-17T16:53:10.746Z,4.13
2022-08-17T16:55:38.378Z,3.33
2022-08-17T16:58:06.279Z,3.28
2022-08-17T17:00:34.051Z,3.55
2022-08-17T17:03:18.114Z,4.05
2022-08-17T17:06:13.433Z,4.35
2022-08-17T17:08:48.332Z,3.88
2022-08-17T17:11:26.971Z,3.73
2022-08-17T17:14:01.596Z,4.00
2022-08-17T17:16:33.857Z,5.13
2022-08-17T17:19:12.349Z,4.90
2022-08-17T17:22:11.303Z,5.05
2022-08-17T17:24:50.162Z,4.50
2022-08-17T17:27:56.179Z,5.75
2022-08-17T17:30:42.657Z,9.15
2022-08-17T17:33:11.565Z,6.57
2022-08-17T17:35:47.100Z,6.43
2022-08-17T17:38:28.944Z,4.93
2022-08-17T17:41:02.234Z,5.40
2022-08-17T17:43:44.592Z,4.88
2022-08-17T17:46:27.624Z,4.30
2022-08-17T17:48:57.539Z,4.78
2022-08-17T17:52:06.700Z,4.95
2022-08-17T17:54:52.656Z,4.15
2022-08-17T17:57:40.487Z,4.70
2022-08-17T18:00:21.996Z,4.38
2022-08-17T18:02:57.317Z,4.55
2022-08-17T18:05:55.094Z,5.30
2022-08-17T18:08:38.988Z,5.10
2022-08-17T18:11:35.407Z,4.35
2022-08-17T18:14:31.343Z,5.17
2022-08-17T18:17:00.441Z,4.93
2022-08-17T18:19:29.740Z,9.65
2022-08-17T18:22:06.859Z,10.45
2022-08-17T18:24:39.869Z,6.03
2022-08-17T18:27:27.848Z,6.20
2022-08-17T18:29:57.443Z,5.68
2022-08-17T18:32:26.174Z,5.57
2022-08-17T18:35:01.203Z,4.68
2022-08-17T18:37:43.340Z,5.50
2022-08-17T18:40:16.531Z,4.50
2022-08-17T18:42:44.305Z,4.65
2022-08-17T18:45:11.485Z,3.90
2022-08-17T18:47:54.065Z,3.63
2022-08-17T18:50:46.902Z,4.22
2022-08-17T18:53:33.933Z,4.35
2022-08-17T18:56:30.487Z,3.92
2022-08-17T19:01:59.875Z,3.92
2022-08-17T19:05:01.643Z,4.35
2022-08-17T19:07:30.566Z,3.15
2022-08-17T19:10:05.206Z,4.10
2022-08-17T19:12:39.943Z,3.95
2022-08-17T19:15:09.323Z,3.80
2022-08-17T19:17:46.764Z,3.58
2022-08-17T19:20:32.582Z,4.10
2022-08-17T19:23:05.136Z,4.32
2022-08-17T19:25:36.353Z,3.47
2022-08-17T19:28:21.738Z,4.32
2022-08-17T19:30:54.194Z,3.55
2022-08-17T19:33:21.239Z,4.30
2022-08-17T19:35:58.840Z,3.83
2022-08-17T19:39:03.153Z,4.50
2022-08-17T19:41:45.099Z,4.00
2022-08-17T19:44:20.848Z,4.32
2022-08-17T19:47:01.866Z,4.22
2022-08-17T19:49:41.397Z,4.45
2022-08-17T19:52:47.409Z,4.03
2022-08-17T19:55:20.597Z,4.15
2022-08-17T19:57:52.763Z,3.95
2022-08-17T20:00:19.723Z,3.67
2022-08-17T20:03:16.191Z,4.15
2022-08-17T20:06:14.082Z,3.85
2022-08-17T20:08:51.568Z,4.18
2022-08-17T20:11:28.147Z,4.30
2022-08-17T20:14:23.732Z,3.42
2022-08-17T20:16:51.197Z,4.80
2022-08-17T20:19:27.924Z,3.90
2022-08-17T20:22:00.456Z,4.47
2022-08-17T20:24:38.625Z,4.28
2022-08-17T20:27:20.192Z,4.65
2022-08-17T20:30:05.549Z,3.85
2022-08-17T20:32:56.917Z,4.28
2022-08-17T20:35:34.333Z,3.65
2022-08-17T20:38:44.663Z,5.50
2022-08-17T20:41:15.285Z,3.80
2022-08-17T20:43:49.014Z,3.75
2022-08-17T20:46:41.422Z,4.63
2022-08-17T20:49:11.213Z,4.07
2022-08-17T20:52:00.791Z,4.20
2022-08-17T20:54:50.349Z,3.50
2022-08-17T20:57:32.405Z,4.28
2022-08-17T21:00:15.019Z,4.38
2022-08-17T21:02:45.144Z,3.35
2022-08-17T21:05:59.895Z,4.18
2022-08-17T21:08:35.902Z,4.22
2022-08-17T21:12:02.240Z,4.20
2022-08-17T21:14:38.028Z,4.32
2022-08-17T21:17:29.645Z,4.40
2022-08-17T21:20:26.458Z,4.20
2022-08-17T21:23:05.264Z,4.78
2022-08-17T21:26:02.564Z,4.35
2022-08-17T21:29:01.665Z,3.95
2022-08-17T21:32:15.862Z,3.45
2022-08-17T21:35:27.231Z,3.67
2022-08-17T21:38:03.833Z,3.45
2022-08-17T21:40:33.850Z,4.85
2022-08-17T21:43:14.445Z,3.78
2022-08-17T21:45:42.936Z,3.78
2022-08-17T21:48:15.267Z,4.50
2022-08-17T21:50:46.187Z,3.92
2022-08-17T21:53:22.667Z,4.43
2022-08-17T21:55:51.498Z,4.25
2022-08-17T21:58:35.118Z,4.13
2022-08-17T22:01:16.966Z,4.20
2022-08-17T22:03:46.542Z,4.35
2022-08-17T22:06:41.437Z,4.32
2022-08-17T22:09:25.808Z,4.50
2022-08-17T22:11:58.268Z,4.00
2022-08-17T22:14:51.537Z,4.00
2022-08-17T22:17:21.249Z,4.53
2022-08-17T22:19:51.580Z,4.32
2022-08-17T22:22:59.554Z,3.75
2022-08-17T22:25:28.066Z,4.07
2022-08-17T22:28:00.233Z,4.10
2022-08-17T22:30:40.755Z,3.70
2022-08-17T22:33:39.550Z,4.10
2022-08-17T22:36:34.666Z,4.05
2022-08-17T22:39:09.994Z,3.85
2022-08-17T22:41:42.965Z,4.05
2022-08-17T22:44:20.522Z,4.40
2022-08-17T22:46:58.807Z,3.30
2022-08-17T22:49:31.213Z,3.60
2022-08-17T22:52:16.369Z,3.88
2022-08-17T22:55:09.320Z,4.05
2022-08-17T22:57:55.566Z,4.05
2022-08-17T23:00:39.516Z,3.65
2022-08-17T23:03:20.255Z,3.80
2022-08-17T23:06:09.542Z,4.53
2022-08-17T23:09:04.597Z,4.05
2022-08-17T23:11:48.668Z,3.92
2022-08-17T23:14:20.944Z,3.67
2022-08-17T23:16:50.049Z,3.65
2022-08-17T23:19:19.884Z,3.95
2022-08-17T23:21:47.171Z,3.63
2022-08-17T23:24:24.890Z,3.80
2022-08-17T23:26:52.279Z,3.80
2022-08-17T23:29:21.513Z,4.10
2022-08-17T23:31:49.586Z,3.80
2022-08-17T23:34:18.457Z,3.72
2022-08-17T23:36:55.070Z,3.83
2022-08-17T23:39:27.303Z,4.00
2022-08-17T23:41:58.959Z,3.83
2022-08-17T23:44:26.619Z,3.72
2022-08-17T23:46:54.267Z,4.72
2022-08-17T23:49:21.273Z,4.25
2022-08-17T23:51:48.902Z,4.35
2022-08-17T23:54:35.069Z,4.63
2022-08-17T23:57:02.781Z,4.35
2022-08-17T23:59:29.517Z,4.40
